Terminal Aerodrome Forecast
Issued by NWS Albany, NY

Home | Current Version | Previous Version | Text Only | Print | Product List | Glossary On
Versions: 1 2 3 4 5 6 7 8 9 10 11 12 13 14 15 16 17 18 19 20 21 22
761
FTUS41 KALY 190910 AAA
TAFGFL
TAF AMD
KGFL 190910Z 1909/2006 16005KT P6SM VCSH FEW035 BKN060 OVC100
     FM191500 01004KT 6SM -RA OVC020
     FM191900 35006KT 6SM -RA OVC035
     FM192300 33007KT P6SM OVC040 PROB30 1923/2002 4SM -SHRA OVC025
     FM200200 31007KT P6SM OVC045 PROB30 2002/2006 1SM -SHRASN
      OVC025=

USA.gov is the U.S. government's official web portal to all federal, state and local government web resources and services.